sensor_id;sensor_type;location;lat;lon;timestamp;P1;durP1;ratioP1;P2;durP2;ratioP2
68858;SDS011;55864;49.238;8.092;2023-01-10T00:01:14;2.67;;;0.80;;
68858;SDS011;55864;49.238;8.092;2023-01-10T00:03:15;1.83;;;0.80;;
68858;SDS011;55864;49.238;8.092;2023-01-10T00:05:17;2.53;;;0.87;;
68858;SDS011;55864;49.238;8.092;2023-01-10T00:07:18;1.57;;;0.70;;
68858;SDS011;55864;49.238;8.092;2023-01-10T00:09:18;1.37;;;0.70;;
68858;SDS011;55864;49.238;8.092;2023-01-10T00:11:20;1.80;;;0.73;;
68858;SDS011;55864;49.238;8.092;2023-01-10T00:13:21;2.83;;;0.80;;
68858;SDS011;55864;49.238;8.092;2023-01-10T00:15:21;1.60;;;0.80;;
68858;SDS011;55864;49.238;8.092;2023-01-10T00:17:22;2.10;;;0.70;;
68858;SDS011;55864;49.238;8.092;2023-01-10T00:19:22;1.43;;;0.80;;
68858;SDS011;55864;49.238;8.092;2023-01-10T00:21:23;1.43;;;0.60;;
68858;SDS011;55864;49.238;8.092;2023-01-10T00:23:23;1.83;;;0.70;;
68858;SDS011;55864;49.238;8.092;2023-01-10T00:25:25;3.13;;;0.83;;
68858;SDS011;55864;49.238;8.092;2023-01-10T00:27:27;1.50;;;0.80;;
68858;SDS011;55864;49.238;8.092;2023-01-10T00:29:28;2.73;;;0.77;;
68858;SDS011;55864;49.238;8.092;2023-01-10T00:31:29;2.60;;;0.90;;
68858;SDS011;55864;49.238;8.092;2023-01-10T00:33:30;1.57;;;0.60;;
68858;SDS011;55864;49.238;8.092;2023-01-10T00:35:31;1.70;;;0.70;;
68858;SDS011;55864;49.238;8.092;2023-01-10T00:37:32;1.47;;;0.70;;
68858;SDS011;55864;49.238;8.092;2023-01-10T00:39:32;1.70;;;0.80;;
68858;SDS011;55864;49.238;8.092;2023-01-10T00:41:33;2.13;;;0.70;;
68858;SDS011;55864;49.238;8.092;2023-01-10T00:43:34;1.97;;;0.60;;
68858;SDS011;55864;49.238;8.092;2023-01-10T00:45:35;1.20;;;0.63;;
68858;SDS011;55864;49.238;8.092;2023-01-10T00:47:35;2.60;;;0.70;;
68858;SDS011;55864;49.238;8.092;2023-01-10T00:49:36;0.93;;;0.53;;
68858;SDS011;55864;49.238;8.092;2023-01-10T00:51:37;2.00;;;0.67;;
68858;SDS011;55864;49.238;8.092;2023-01-10T00:53:37;0.73;;;0.50;;
68858;SDS011;55864;49.238;8.092;2023-01-10T00:55:38;1.20;;;0.60;;
68858;SDS011;55864;49.238;8.092;2023-01-10T00:57:38;2.20;;;0.70;;
68858;SDS011;55864;49.238;8.092;2023-01-10T00:59:40;2.10;;;0.80;;
68858;SDS011;55864;49.238;8.092;2023-01-10T01:01:41;2.30;;;0.70;;
68858;SDS011;55864;49.238;8.092;2023-01-10T01:03:41;1.83;;;0.80;;
68858;SDS011;55864;49.238;8.092;2023-01-10T01:05:42;1.90;;;0.80;;
68858;SDS011;55864;49.238;8.092;2023-01-10T01:07:46;1.47;;;0.60;;
68858;SDS011;55864;49.238;8.092;2023-01-10T01:09:47;2.47;;;0.70;;
68858;SDS011;55864;49.238;8.092;2023-01-10T01:11:47;2.57;;;0.70;;
68858;SDS011;55864;49.238;8.092;2023-01-10T01:13:48;1.67;;;0.70;;
68858;SDS011;55864;49.238;8.092;2023-01-10T01:15:49;2.40;;;0.80;;
68858;SDS011;55864;49.238;8.092;2023-01-10T01:17:50;2.20;;;0.60;;
68858;SDS011;55864;49.238;8.092;2023-01-10T01:19:51;2.73;;;0.70;;
68858;SDS011;55864;49.238;8.092;2023-01-10T01:21:51;3.00;;;0.83;;
68858;SDS011;55864;49.238;8.092;2023-01-10T01:23:52;3.70;;;0.80;;
68858;SDS011;55864;49.238;8.092;2023-01-10T01:25:53;1.33;;;0.60;;
68858;SDS011;55864;49.238;8.092;2023-01-10T01:27:54;3.17;;;0.80;;
68858;SDS011;55864;49.238;8.092;2023-01-10T01:29:55;1.40;;;0.60;;
68858;SDS011;55864;49.238;8.092;2023-01-10T01:31:56;3.07;;;0.93;;
68858;SDS011;55864;49.238;8.092;2023-01-10T01:33:57;3.07;;;0.80;;
68858;SDS011;55864;49.238;8.092;2023-01-10T01:35:57;4.87;;;1.07;;
68858;SDS011;55864;49.238;8.092;2023-01-10T01:37:58;4.00;;;1.00;;
68858;SDS011;55864;49.238;8.092;2023-01-10T01:39:59;4.37;;;1.30;;
68858;SDS011;55864;49.238;8.092;2023-01-10T01:42:01;2.83;;;0.90;;
68858;SDS011;55864;49.238;8.092;2023-01-10T01:44:02;2.90;;;1.30;;
68858;SDS011;55864;49.238;8.092;2023-01-10T01:46:04;2.27;;;0.90;;
68858;SDS011;55864;49.238;8.092;2023-01-10T01:48:14;5.87;;;1.07;;
68858;SDS011;55864;49.238;8.092;2023-01-10T01:50:20;6.50;;;1.43;;
68858;SDS011;55864;49.238;8.092;2023-01-10T01:52:25;4.50;;;1.23;;
68858;SDS011;55864;49.238;8.092;2023-01-10T01:54:29;7.27;;;1.60;;
68858;SDS011;55864;49.238;8.092;2023-01-10T01:56:33;4.20;;;1.23;;
68858;SDS011;55864;49.238;8.092;2023-01-10T01:58:39;6.50;;;1.30;;
68858;SDS011;55864;49.238;8.092;2023-01-10T02:00:44;4.90;;;1.27;;
68858;SDS011;55864;49.238;8.092;2023-01-10T02:02:45;4.67;;;1.20;;
68858;SDS011;55864;49.238;8.092;2023-01-10T02:04:51;5.93;;;1.27;;
68858;SDS011;55864;49.238;8.092;2023-01-10T02:06:55;7.80;;;1.53;;
68858;SDS011;55864;49.238;8.092;2023-01-10T02:08:59;3.87;;;1.30;;
68858;SDS011;55864;49.238;8.092;2023-01-10T02:11:07;5.03;;;1.47;;
68858;SDS011;55864;49.238;8.092;2023-01-10T02:13:10;3.83;;;1.10;;
68858;SDS011;55864;49.238;8.092;2023-01-10T02:15:13;4.63;;;1.23;;
68858;SDS011;55864;49.238;8.092;2023-01-10T02:17:15;7.20;;;1.30;;
68858;SDS011;55864;49.238;8.092;2023-01-10T02:19:16;5.00;;;1.30;;
68858;SDS011;55864;49.238;8.092;2023-01-10T02:21:32;6.90;;;1.60;;
68858;SDS011;55864;49.238;8.092;2023-01-10T02:23:58;3.37;;;1.30;;
68858;SDS011;55864;49.238;8.092;2023-01-10T02:26:33;4.77;;;1.23;;
68858;SDS011;55864;49.238;8.092;2023-01-10T02:28:53;4.63;;;1.30;;
68858;SDS011;55864;49.238;8.092;2023-01-10T02:33:59;6.07;;;1.67;;
68858;SDS011;55864;49.238;8.092;2023-01-10T02:36:13;5.33;;;1.20;;
68858;SDS011;55864;49.238;8.092;2023-01-10T02:38:27;6.53;;;1.40;;
68858;SDS011;55864;49.238;8.092;2023-01-10T02:40:38;4.50;;;1.23;;
68858;SDS011;55864;49.238;8.092;2023-01-10T02:42:48;5.90;;;1.20;;
68858;SDS011;55864;49.238;8.092;2023-01-10T02:44:56;6.83;;;1.30;;
68858;SDS011;55864;49.238;8.092;2023-01-10T02:47:02;5.37;;;1.30;;
68858;SDS011;55864;49.238;8.092;2023-01-10T02:49:04;6.95;;;1.40;;
68858;SDS011;55864;49.238;8.092;2023-01-10T02:51:07;6.60;;;1.70;;
68858;SDS011;55864;49.238;8.092;2023-01-10T02:53:15;6.93;;;1.57;;
68858;SDS011;55864;49.238;8.092;2023-01-10T02:55:21;7.93;;;1.40;;
68858;SDS011;55864;49.238;8.092;2023-01-10T02:57:38;6.97;;;1.37;;
68858;SDS011;55864;49.238;8.092;2023-01-10T03:02:24;4.83;;;1.37;;
68858;SDS011;55864;49.238;8.092;2023-01-10T03:04:38;6.53;;;1.50;;
68858;SDS011;55864;49.238;8.092;2023-01-10T03:06:51;4.73;;;1.30;;
68858;SDS011;55864;49.238;8.092;2023-01-10T03:08:58;8.37;;;1.50;;
68858;SDS011;55864;49.238;8.092;2023-01-10T03:11:04;7.83;;;1.70;;
68858;SDS011;55864;49.238;8.092;2023-01-10T03:13:07;9.07;;;1.60;;
68858;SDS011;55864;49.238;8.092;2023-01-10T03:15:12;6.67;;;1.40;;
68858;SDS011;55864;49.238;8.092;2023-01-10T03:17:17;7.87;;;1.50;;
68858;SDS011;55864;49.238;8.092;2023-01-10T03:19:22;6.77;;;1.50;;
68858;SDS011;55864;49.238;8.092;2023-01-10T03:21:26;6.00;;;1.40;;
68858;SDS011;55864;49.238;8.092;2023-01-10T03:23:28;7.22;;;1.63;;
68858;SDS011;55864;49.238;8.092;2023-01-10T03:25:34;7.07;;;1.50;;
68858;SDS011;55864;49.238;8.092;2023-01-10T03:27:38;5.90;;;1.53;;
68858;SDS011;55864;49.238;8.092;2023-01-10T03:29:50;7.27;;;1.40;;
68858;SDS011;55864;49.238;8.092;2023-01-10T03:31:56;10.77;;;1.70;;
68858;SDS011;55864;49.238;8.092;2023-01-10T03:34:02;10.67;;;1.80;;
68858;SDS011;55864;49.238;8.092;2023-01-10T03:36:08;9.37;;;1.90;;
68858;SDS011;55864;49.238;8.092;2023-01-10T03:38:14;8.50;;;1.90;;
68858;SDS011;55864;49.238;8.092;2023-01-10T03:40:24;9.70;;;1.70;;
68858;SDS011;55864;49.238;8.092;2023-01-10T03:42:33;4.27;;;1.30;;
68858;SDS011;55864;49.238;8.092;2023-01-10T03:44:39;6.73;;;1.63;;
68858;SDS011;55864;49.238;8.092;2023-01-10T03:46:45;7.40;;;1.80;;
68858;SDS011;55864;49.238;8.092;2023-01-10T03:48:49;9.77;;;1.80;;
68858;SDS011;55864;49.238;8.092;2023-01-10T03:50:50;9.53;;;2.40;;
68858;SDS011;55864;49.238;8.092;2023-01-10T03:52:52;5.53;;;1.80;;
68858;SDS011;55864;49.238;8.092;2023-01-10T03:54:53;9.50;;;2.57;;
68858;SDS011;55864;49.238;8.092;2023-01-10T03:56:53;10.10;;;2.00;;
68858;SDS011;55864;49.238;8.092;2023-01-10T03:58:54;6.20;;;1.70;;
68858;SDS011;55864;49.238;8.092;2023-01-10T04:00:54;7.80;;;1.80;;
68858;SDS011;55864;49.238;8.092;2023-01-10T04:02:55;10.90;;;1.87;;
68858;SDS011;55864;49.238;8.092;2023-01-10T04:04:56;7.73;;;1.67;;
68858;SDS011;55864;49.238;8.092;2023-01-10T04:06:57;7.90;;;1.53;;
68858;SDS011;55864;49.238;8.092;2023-01-10T04:08:59;7.53;;;1.50;;
68858;SDS011;55864;49.238;8.092;2023-01-10T04:10:59;6.70;;;1.57;;
68858;SDS011;55864;49.238;8.092;2023-01-10T04:13:00;8.47;;;1.60;;
68858;SDS011;55864;49.238;8.092;2023-01-10T04:15:01;9.17;;;1.77;;
68858;SDS011;55864;49.238;8.092;2023-01-10T04:17:01;8.13;;;1.83;;
68858;SDS011;55864;49.238;8.092;2023-01-10T04:19:02;13.00;;;1.80;;
68858;SDS011;55864;49.238;8.092;2023-01-10T04:21:10;10.37;;;2.07;;
68858;SDS011;55864;49.238;8.092;2023-01-10T04:23:39;12.40;;;1.93;;
68858;SDS011;55864;49.238;8.092;2023-01-10T04:25:41;11.33;;;2.00;;
68858;SDS011;55864;49.238;8.092;2023-01-10T04:27:47;9.23;;;1.67;;
68858;SDS011;55864;49.238;8.092;2023-01-10T04:29:49;10.98;;;2.10;;
68858;SDS011;55864;49.238;8.092;2023-01-10T04:31:52;10.38;;;1.83;;
68858;SDS011;55864;49.238;8.092;2023-01-10T04:33:52;10.33;;;2.07;;
68858;SDS011;55864;49.238;8.092;2023-01-10T04:35:53;12.43;;;2.20;;
68858;SDS011;55864;49.238;8.092;2023-01-10T04:37:54;13.27;;;2.10;;
68858;SDS011;55864;49.238;8.092;2023-01-10T04:39:55;8.73;;;1.80;;
68858;SDS011;55864;49.238;8.092;2023-01-10T04:41:57;10.77;;;2.00;;
68858;SDS011;55864;49.238;8.092;2023-01-10T04:43:58;9.67;;;2.20;;
68858;SDS011;55864;49.238;8.092;2023-01-10T04:45:58;10.27;;;1.60;;
68858;SDS011;55864;49.238;8.092;2023-01-10T04:47:59;17.37;;;2.30;;
68858;SDS011;55864;49.238;8.092;2023-01-10T04:50:00;8.97;;;1.97;;
68858;SDS011;55864;49.238;8.092;2023-01-10T04:52:00;11.53;;;2.03;;
68858;SDS011;55864;49.238;8.092;2023-01-10T04:54:01;11.90;;;2.00;;
68858;SDS011;55864;49.238;8.092;2023-01-10T04:56:02;9.63;;;2.53;;
68858;SDS011;55864;49.238;8.092;2023-01-10T04:58:04;12.73;;;2.17;;
68858;SDS011;55864;49.238;8.092;2023-01-10T05:00:05;11.47;;;2.00;;
68858;SDS011;55864;49.238;8.092;2023-01-10T05:02:07;12.17;;;1.90;;
68858;SDS011;55864;49.238;8.092;2023-01-10T05:04:07;11.70;;;1.60;;
68858;SDS011;55864;49.238;8.092;2023-01-10T05:06:08;12.07;;;2.60;;
68858;SDS011;55864;49.238;8.092;2023-01-10T05:08:09;13.37;;;1.90;;
68858;SDS011;55864;49.238;8.092;2023-01-10T05:10:10;11.23;;;2.03;;
68858;SDS011;55864;49.238;8.092;2023-01-10T05:12:10;11.73;;;1.97;;
68858;SDS011;55864;49.238;8.092;2023-01-10T05:14:12;14.10;;;1.90;;
68858;SDS011;55864;49.238;8.092;2023-01-10T05:16:13;13.67;;;2.30;;
68858;SDS011;55864;49.238;8.092;2023-01-10T05:18:14;9.13;;;1.80;;
68858;SDS011;55864;49.238;8.092;2023-01-10T05:20:14;14.40;;;2.73;;
68858;SDS011;55864;49.238;8.092;2023-01-10T05:22:15;11.10;;;2.20;;
68858;SDS011;55864;49.238;8.092;2023-01-10T05:24:15;11.83;;;2.00;;
68858;SDS011;55864;49.238;8.092;2023-01-10T05:26:16;10.10;;;1.97;;
68858;SDS011;55864;49.238;8.092;2023-01-10T05:28:18;10.13;;;1.73;;
68858;SDS011;55864;49.238;8.092;2023-01-10T05:30:20;10.53;;;1.83;;
68858;SDS011;55864;49.238;8.092;2023-01-10T05:32:20;15.20;;;2.10;;
68858;SDS011;55864;49.238;8.092;2023-01-10T05:34:21;11.27;;;1.87;;
68858;SDS011;55864;49.238;8.092;2023-01-10T05:36:21;14.70;;;2.13;;
68858;SDS011;55864;49.238;8.092;2023-01-10T05:38:22;10.33;;;1.90;;
68858;SDS011;55864;49.238;8.092;2023-01-10T05:40:22;13.30;;;2.03;;
68858;SDS011;55864;49.238;8.092;2023-01-10T05:42:23;10.97;;;1.83;;
68858;SDS011;55864;49.238;8.092;2023-01-10T05:44:23;12.83;;;1.90;;
68858;SDS011;55864;49.238;8.092;2023-01-10T05:46:25;9.37;;;2.00;;
68858;SDS011;55864;49.238;8.092;2023-01-10T05:48:26;13.43;;;2.10;;
68858;SDS011;55864;49.238;8.092;2023-01-10T05:50:26;14.57;;;2.07;;
68858;SDS011;55864;49.238;8.092;2023-01-10T05:52:33;13.03;;;2.00;;
68858;SDS011;55864;49.238;8.092;2023-01-10T05:54:33;14.27;;;1.90;;
68858;SDS011;55864;49.238;8.092;2023-01-10T05:56:34;9.07;;;1.80;;
68858;SDS011;55864;49.238;8.092;2023-01-10T05:58:34;10.93;;;1.90;;
68858;SDS011;55864;49.238;8.092;2023-01-10T06:00:35;11.33;;;2.37;;
68858;SDS011;55864;49.238;8.092;2023-01-10T06:02:37;11.63;;;2.53;;
68858;SDS011;55864;49.238;8.092;2023-01-10T06:04:37;8.77;;;2.10;;
68858;SDS011;55864;49.238;8.092;2023-01-10T06:06:38;9.50;;;2.40;;
68858;SDS011;55864;49.238;8.092;2023-01-10T06:08:39;10.13;;;2.50;;
68858;SDS011;55864;49.238;8.092;2023-01-10T06:10:39;10.47;;;2.13;;
68858;SDS011;55864;49.238;8.092;2023-01-10T06:12:40;14.03;;;2.20;;
68858;SDS011;55864;49.238;8.092;2023-01-10T06:14:40;18.03;;;2.50;;
68858;SDS011;55864;49.238;8.092;2023-01-10T06:16:41;12.57;;;2.37;;
68858;SDS011;55864;49.238;8.092;2023-01-10T06:18:43;13.20;;;2.43;;
68858;SDS011;55864;49.238;8.092;2023-01-10T06:20:43;16.40;;;2.60;;
68858;SDS011;55864;49.238;8.092;2023-01-10T06:22:44;14.67;;;2.00;;
68858;SDS011;55864;49.238;8.092;2023-01-10T06:24:44;14.13;;;2.00;;
68858;SDS011;55864;49.238;8.092;2023-01-10T06:26:45;13.70;;;2.20;;
68858;SDS011;55864;49.238;8.092;2023-01-10T06:28:45;11.27;;;2.30;;
68858;SDS011;55864;49.238;8.092;2023-01-10T06:30:46;11.30;;;2.03;;
68858;SDS011;55864;49.238;8.092;2023-01-10T06:32:46;9.27;;;1.90;;
68858;SDS011;55864;49.238;8.092;2023-01-10T06:34:48;13.93;;;2.60;;
68858;SDS011;55864;49.238;8.092;2023-01-10T06:36:49;14.70;;;2.93;;
68858;SDS011;55864;49.238;8.092;2023-01-10T06:38:49;14.30;;;2.50;;
68858;SDS011;55864;49.238;8.092;2023-01-10T06:40:50;13.03;;;2.70;;
68858;SDS011;55864;49.238;8.092;2023-01-10T06:42:50;14.90;;;2.73;;
68858;SDS011;55864;49.238;8.092;2023-01-10T06:44:51;11.87;;;2.40;;
68858;SDS011;55864;49.238;8.092;2023-01-10T06:46:51;9.73;;;1.90;;
68858;SDS011;55864;49.238;8.092;2023-01-10T06:48:52;12.30;;;2.57;;
68858;SDS011;55864;49.238;8.092;2023-01-10T06:50:54;17.03;;;3.20;;
68858;SDS011;55864;49.238;8.092;2023-01-10T06:52:55;12.73;;;3.10;;
68858;SDS011;55864;49.238;8.092;2023-01-10T06:54:56;13.80;;;2.40;;
68858;SDS011;55864;49.238;8.092;2023-01-10T06:56:56;15.30;;;2.43;;
68858;SDS011;55864;49.238;8.092;2023-01-10T06:58:57;10.13;;;2.50;;
68858;SDS011;55864;49.238;8.092;2023-01-10T07:00:57;14.40;;;2.67;;
68858;SDS011;55864;49.238;8.092;2023-01-10T07:02:58;11.17;;;2.70;;
68858;SDS011;55864;49.238;8.092;2023-01-10T07:04:59;12.87;;;2.83;;
68858;SDS011;55864;49.238;8.092;2023-01-10T07:07:01;12.87;;;2.83;;
68858;SDS011;55864;49.238;8.092;2023-01-10T07:09:02;10.07;;;2.30;;
68858;SDS011;55864;49.238;8.092;2023-01-10T07:11:03;12.33;;;2.40;;
68858;SDS011;55864;49.238;8.092;2023-01-10T07:13:04;15.07;;;3.23;;
68858;SDS011;55864;49.238;8.092;2023-01-10T07:15:05;14.93;;;2.63;;
68858;SDS011;55864;49.238;8.092;2023-01-10T07:17:06;9.90;;;2.53;;
68858;SDS011;55864;49.238;8.092;2023-01-10T07:19:06;13.43;;;2.60;;
68858;SDS011;55864;49.238;8.092;2023-01-10T07:21:07;14.07;;;2.43;;
68858;SDS011;55864;49.238;8.092;2023-01-10T07:23:10;14.87;;;2.40;;
68858;SDS011;55864;49.238;8.092;2023-01-10T07:25:10;11.80;;;2.33;;
68858;SDS011;55864;49.238;8.092;2023-01-10T07:27:11;12.93;;;2.30;;
68858;SDS011;55864;49.238;8.092;2023-01-10T07:29:11;11.90;;;2.67;;
68858;SDS011;55864;49.238;8.092;2023-01-10T07:31:12;10.43;;;2.10;;
68858;SDS011;55864;49.238;8.092;2023-01-10T07:33:12;10.63;;;2.33;;
68858;SDS011;55864;49.238;8.092;2023-01-10T07:35:13;13.03;;;2.53;;
68858;SDS011;55864;49.238;8.092;2023-01-10T07:37:13;11.97;;;3.43;;
68858;SDS011;55864;49.238;8.092;2023-01-10T07:39:15;11.30;;;2.50;;
68858;SDS011;55864;49.238;8.092;2023-01-10T07:41:16;13.53;;;2.30;;
68858;SDS011;55864;49.238;8.092;2023-01-10T07:43:16;11.17;;;2.40;;
68858;SDS011;55864;49.238;8.092;2023-01-10T07:45:17;11.73;;;2.80;;
68858;SDS011;55864;49.238;8.092;2023-01-10T07:47:17;12.53;;;3.93;;
68858;SDS011;55864;49.238;8.092;2023-01-10T07:49:18;11.37;;;2.10;;
68858;SDS011;55864;49.238;8.092;2023-01-10T07:51:18;12.13;;;2.30;;
68858;SDS011;55864;49.238;8.092;2023-01-10T07:53:19;12.03;;;2.03;;
68858;SDS011;55864;49.238;8.092;2023-01-10T07:55:21;8.13;;;1.70;;
68858;SDS011;55864;49.238;8.092;2023-01-10T07:57:22;10.53;;;2.53;;
68858;SDS011;55864;49.238;8.092;2023-01-10T07:59:22;12.30;;;2.50;;
68858;SDS011;55864;49.238;8.092;2023-01-10T08:01:23;19.33;;;2.73;;
68858;SDS011;55864;49.238;8.092;2023-01-10T08:03:23;11.47;;;2.87;;
68858;SDS011;55864;49.238;8.092;2023-01-10T08:05:24;15.40;;;5.07;;
68858;SDS011;55864;49.238;8.092;2023-01-10T08:07:24;17.00;;;3.13;;
68858;SDS011;55864;49.238;8.092;2023-01-10T08:09:25;15.73;;;3.17;;
68858;SDS011;55864;49.238;8.092;2023-01-10T08:11:27;11.07;;;2.13;;
68858;SDS011;55864;49.238;8.092;2023-01-10T08:13:28;13.17;;;2.30;;
68858;SDS011;55864;49.238;8.092;2023-01-10T08:15:28;12.37;;;2.80;;
68858;SDS011;55864;49.238;8.092;2023-01-10T08:17:31;15.33;;;2.27;;
68858;SDS011;55864;49.238;8.092;2023-01-10T08:19:32;10.10;;;2.03;;
68858;SDS011;55864;49.238;8.092;2023-01-10T08:21:32;15.97;;;3.60;;
68858;SDS011;55864;49.238;8.092;2023-01-10T08:23:33;11.70;;;2.93;;
68858;SDS011;55864;49.238;8.092;2023-01-10T08:25:33;16.07;;;3.17;;
68858;SDS011;55864;49.238;8.092;2023-01-10T08:27:35;12.50;;;2.53;;
68858;SDS011;55864;49.238;8.092;2023-01-10T08:29:36;16.10;;;2.70;;
68858;SDS011;55864;49.238;8.092;2023-01-10T08:31:39;12.43;;;2.43;;
68858;SDS011;55864;49.238;8.092;2023-01-10T08:33:39;18.65;;;2.40;;
68858;SDS011;55864;49.238;8.092;2023-01-10T08:35:40;14.43;;;2.67;;
68858;SDS011;55864;49.238;8.092;2023-01-10T08:37:42;17.73;;;4.73;;
68858;SDS011;55864;49.238;8.092;2023-01-10T08:39:43;15.03;;;3.93;;
68858;SDS011;55864;49.238;8.092;2023-01-10T08:41:43;16.50;;;3.37;;
68858;SDS011;55864;49.238;8.092;2023-01-10T08:43:47;17.70;;;4.10;;
68858;SDS011;55864;49.238;8.092;2023-01-10T08:45:48;15.13;;;2.90;;
68858;SDS011;55864;49.238;8.092;2023-01-10T08:47:49;13.60;;;2.80;;
68858;SDS011;55864;49.238;8.092;2023-01-10T08:49:49;12.70;;;3.43;;
68858;SDS011;55864;49.238;8.092;2023-01-10T08:51:50;12.63;;;2.87;;
68858;SDS011;55864;49.238;8.092;2023-01-10T08:53:50;11.10;;;2.70;;
68858;SDS011;55864;49.238;8.092;2023-01-10T08:55:51;14.13;;;2.83;;
68858;SDS011;55864;49.238;8.092;2023-01-10T08:57:51;13.77;;;3.00;;
68858;SDS011;55864;49.238;8.092;2023-01-10T08:59:53;14.80;;;3.10;;
68858;SDS011;55864;49.238;8.092;2023-01-10T09:01:54;16.83;;;2.80;;
68858;SDS011;55864;49.238;8.092;2023-01-10T09:03:54;16.60;;;2.20;;
68858;SDS011;55864;49.238;8.092;2023-01-10T09:05:55;16.00;;;2.97;;
68858;SDS011;55864;49.238;8.092;2023-01-10T09:07:58;17.90;;;2.30;;
68858;SDS011;55864;49.238;8.092;2023-01-10T09:10:00;11.63;;;2.47;;
68858;SDS011;55864;49.238;8.092;2023-01-10T09:12:00;13.33;;;2.83;;
68858;SDS011;55864;49.238;8.092;2023-01-10T09:14:01;16.40;;;3.40;;
68858;SDS011;55864;49.238;8.092;2023-01-10T09:16:03;12.97;;;2.70;;
68858;SDS011;55864;49.238;8.092;2023-01-10T09:18:04;12.37;;;2.47;;
68858;SDS011;55864;49.238;8.092;2023-01-10T09:20:06;15.77;;;3.30;;
68858;SDS011;55864;49.238;8.092;2023-01-10T09:22:08;19.23;;;4.27;;
68858;SDS011;55864;49.238;8.092;2023-01-10T09:24:08;15.60;;;2.87;;
68858;SDS011;55864;49.238;8.092;2023-01-10T09:26:09;19.27;;;3.23;;
68858;SDS011;55864;49.238;8.092;2023-01-10T09:28:09;18.00;;;2.97;;
68858;SDS011;55864;49.238;8.092;2023-01-10T09:30:10;21.10;;;3.07;;
68858;SDS011;55864;49.238;8.092;2023-01-10T09:32:13;13.43;;;2.23;;
68858;SDS011;55864;49.238;8.092;2023-01-10T09:34:14;25.50;;;7.00;;
68858;SDS011;55864;49.238;8.092;2023-01-10T09:36:14;16.83;;;3.30;;
68858;SDS011;55864;49.238;8.092;2023-01-10T09:38:16;18.73;;;3.27;;
68858;SDS011;55864;49.238;8.092;2023-01-10T09:40:18;16.92;;;3.00;;
68858;SDS011;55864;49.238;8.092;2023-01-10T09:42:26;13.93;;;3.23;;
68858;SDS011;55864;49.238;8.092;2023-01-10T09:44:38;15.87;;;3.23;;
68858;SDS011;55864;49.238;8.092;2023-01-10T09:46:49;12.80;;;2.73;;
68858;SDS011;55864;49.238;8.092;2023-01-10T09:49:01;13.20;;;2.17;;
68858;SDS011;55864;49.238;8.092;2023-01-10T09:51:13;17.07;;;2.77;;
68858;SDS011;55864;49.238;8.092;2023-01-10T09:53:26;14.87;;;2.60;;
68858;SDS011;55864;49.238;8.092;2023-01-10T09:55:31;16.73;;;2.37;;
68858;SDS011;55864;49.238;8.092;2023-01-10T09:59:35;13.23;;;2.50;;
68858;SDS011;55864;49.238;8.092;2023-01-10T10:01:38;15.07;;;2.50;;
68858;SDS011;55864;49.238;8.092;2023-01-10T10:03:40;18.57;;;2.40;;
68858;SDS011;55864;49.238;8.092;2023-01-10T10:05:49;13.90;;;2.20;;
68858;SDS011;55864;49.238;8.092;2023-01-10T10:07:51;11.37;;;2.07;;
68858;SDS011;55864;49.238;8.092;2023-01-10T10:12:06;17.77;;;2.87;;
68858;SDS011;55864;49.238;8.092;2023-01-10T10:14:24;17.73;;;3.30;;
68858;SDS011;55864;49.238;8.092;2023-01-10T10:16:42;14.80;;;2.73;;
68858;SDS011;55864;49.238;8.092;2023-01-10T10:18:57;12.70;;;2.43;;
68858;SDS011;55864;49.238;8.092;2023-01-10T10:21:06;18.77;;;3.27;;
68858;SDS011;55864;49.238;8.092;2023-01-10T10:23:25;15.33;;;2.90;;
68858;SDS011;55864;49.238;8.092;2023-01-10T10:25:53;15.47;;;3.20;;
68858;SDS011;55864;49.238;8.092;2023-01-10T10:28:04;14.60;;;2.77;;
68858;SDS011;55864;49.238;8.092;2023-01-10T10:30:23;24.33;;;2.87;;
68858;SDS011;55864;49.238;8.092;2023-01-10T10:32:42;14.50;;;2.60;;
68858;SDS011;55864;49.238;8.092;2023-01-10T10:34:51;16.20;;;2.75;;
68858;SDS011;55864;49.238;8.092;2023-01-10T10:36:58;12.73;;;3.10;;
68858;SDS011;55864;49.238;8.092;2023-01-10T10:39:02;19.70;;;3.10;;
68858;SDS011;55864;49.238;8.092;2023-01-10T10:41:03;13.80;;;2.70;;
68858;SDS011;55864;49.238;8.092;2023-01-10T10:43:15;17.13;;;2.97;;
68858;SDS011;55864;49.238;8.092;2023-01-10T10:47:20;16.83;;;2.73;;
68858;SDS011;55864;49.238;8.092;2023-01-10T10:49:23;19.98;;;3.20;;
68858;SDS011;55864;49.238;8.092;2023-01-10T10:51:36;15.55;;;2.80;;
68858;SDS011;55864;49.238;8.092;2023-01-10T10:53:43;13.87;;;2.50;;
68858;SDS011;55864;49.238;8.092;2023-01-10T10:55:43;20.80;;;3.50;;
68858;SDS011;55864;49.238;8.092;2023-01-10T10:57:45;14.50;;;3.30;;
68858;SDS011;55864;49.238;8.092;2023-01-10T10:59:47;14.30;;;2.93;;
68858;SDS011;55864;49.238;8.092;2023-01-10T11:01:48;17.43;;;2.73;;
68858;SDS011;55864;49.238;8.092;2023-01-10T11:03:50;14.17;;;2.60;;
68858;SDS011;55864;49.238;8.092;2023-01-10T11:05:54;11.87;;;2.43;;
68858;SDS011;55864;49.238;8.092;2023-01-10T11:07:56;16.47;;;2.80;;
68858;SDS011;55864;49.238;8.092;2023-01-10T11:10:03;16.73;;;3.07;;
68858;SDS011;55864;49.238;8.092;2023-01-10T11:12:11;20.50;;;3.30;;
68858;SDS011;55864;49.238;8.092;2023-01-10T11:14:14;17.95;;;2.80;;
68858;SDS011;55864;49.238;8.092;2023-01-10T11:16:25;15.00;;;2.60;;
68858;SDS011;55864;49.238;8.092;2023-01-10T11:18:28;15.38;;;2.85;;
68858;SDS011;55864;49.238;8.092;2023-01-10T11:20:29;23.70;;;3.20;;
68858;SDS011;55864;49.238;8.092;2023-01-10T11:22:32;21.80;;;7.10;;
68858;SDS011;55864;49.238;8.092;2023-01-10T11:24:38;48.93;;;17.13;;
68858;SDS011;55864;49.238;8.092;2023-01-10T11:26:50;21.90;;;4.50;;
68858;SDS011;55864;49.238;8.092;2023-01-10T11:28:52;27.47;;;5.57;;
68858;SDS011;55864;49.238;8.092;2023-01-10T11:31:02;19.40;;;5.80;;
68858;SDS011;55864;49.238;8.092;2023-01-10T11:33:04;21.00;;;4.93;;
68858;SDS011;55864;49.238;8.092;2023-01-10T11:35:08;17.87;;;3.93;;
68858;SDS011;55864;49.238;8.092;2023-01-10T11:37:17;22.97;;;7.50;;
68858;SDS011;55864;49.238;8.092;2023-01-10T11:39:19;22.38;;;6.30;;
68858;SDS011;55864;49.238;8.092;2023-01-10T11:41:24;18.33;;;4.60;;
68858;SDS011;55864;49.238;8.092;2023-01-10T11:43:28;19.70;;;3.93;;
68858;SDS011;55864;49.238;8.092;2023-01-10T11:45:31;13.27;;;3.47;;
68858;SDS011;55864;49.238;8.092;2023-01-10T11:47:32;10.70;;;2.53;;
68858;SDS011;55864;49.238;8.092;2023-01-10T11:49:34;15.93;;;2.83;;
68858;SDS011;55864;49.238;8.092;2023-01-10T11:53:39;18.27;;;2.77;;
68858;SDS011;55864;49.238;8.092;2023-01-10T11:55:44;22.43;;;4.57;;
68858;SDS011;55864;49.238;8.092;2023-01-10T11:57:53;18.67;;;3.80;;
68858;SDS011;55864;49.238;8.092;2023-01-10T12:00:00;14.73;;;2.90;;
68858;SDS011;55864;49.238;8.092;2023-01-10T12:02:14;17.50;;;2.57;;
68858;SDS011;55864;49.238;8.092;2023-01-10T12:04:22;14.60;;;2.50;;
68858;SDS011;55864;49.238;8.092;2023-01-10T12:06:25;15.55;;;2.75;;
68858;SDS011;55864;49.238;8.092;2023-01-10T12:08:30;15.90;;;2.83;;
68858;SDS011;55864;49.238;8.092;2023-01-10T12:10:32;10.83;;;2.90;;
68858;SDS011;55864;49.238;8.092;2023-01-10T12:12:34;20.20;;;2.83;;
68858;SDS011;55864;49.238;8.092;2023-01-10T12:14:35;20.27;;;3.03;;
68858;SDS011;55864;49.238;8.092;2023-01-10T12:16:37;12.00;;;2.63;;
68858;SDS011;55864;49.238;8.092;2023-01-10T12:18:37;12.53;;;2.03;;
68858;SDS011;55864;49.238;8.092;2023-01-10T12:20:40;19.20;;;2.67;;
68858;SDS011;55864;49.238;8.092;2023-01-10T12:22:45;13.17;;;2.30;;
68858;SDS011;55864;49.238;8.092;2023-01-10T12:24:49;20.80;;;2.73;;
68858;SDS011;55864;49.238;8.092;2023-01-10T12:26:52;16.58;;;2.92;;
68858;SDS011;55864;49.238;8.092;2023-01-10T12:28:53;13.67;;;2.87;;